createdAt,value
2019-05-07T00:02:08.041Z,3.48
2019-05-07T00:04:38.538Z,3.52
2019-05-07T00:07:09.235Z,3.43
2019-05-07T00:09:39.611Z,3.34
2019-05-07T00:12:12.463Z,3.17
2019-05-07T00:14:42.971Z,3.13
2019-05-07T00:17:14.456Z,3.04
2019-05-07T00:19:44.735Z,2.89
2019-05-07T00:22:15.157Z,2.82
2019-05-07T00:24:45.555Z,2.81
2019-05-07T00:27:15.966Z,2.73
2019-05-07T00:29:46.453Z,2.56
2019-05-07T00:32:16.871Z,2.76
2019-05-07T00:34:51.346Z,2.95
2019-05-07T00:37:28.202Z,2.85
2019-05-07T00:40:13.315Z,2.76
2019-05-07T00:43:02.771Z,2.91
2019-05-07T00:45:43.969Z,2.89
2019-05-07T00:48:14.449Z,2.90
2019-05-07T00:50:46.503Z,3.01
2019-05-07T00:53:16.876Z,2.99
2019-05-07T00:55:47.371Z,2.82
2019-05-07T00:58:17.806Z,2.61
2019-05-07T01:00:48.259Z,2.51
2019-05-07T01:03:18.634Z,2.56
2019-05-07T01:05:49.018Z,2.60
2019-05-07T01:08:19.413Z,2.49
2019-05-07T01:10:49.848Z,2.49
2019-05-07T01:13:20.363Z,2.47
2019-05-07T01:15:52.994Z,2.50
2019-05-07T01:18:23.465Z,2.39
2019-05-07T01:20:53.962Z,2.41
2019-05-07T01:23:24.351Z,2.58
2019-05-07T01:25:54.711Z,2.65
2019-05-07T01:28:25.033Z,2.57
2019-05-07T01:30:55.491Z,2.58
2019-05-07T01:33:42.383Z,2.65
2019-05-07T01:36:22.619Z,2.69
2019-05-07T01:38:53.289Z,2.64
2019-05-07T01:41:23.751Z,2.67
2019-05-07T01:43:54.276Z,2.52
2019-05-07T01:46:24.903Z,2.28
2019-05-07T01:48:57.480Z,2.15
2019-05-07T01:51:27.263Z,1.99
2019-05-07T01:53:57.705Z,1.89
2019-05-07T01:56:28.006Z,1.89
2019-05-07T01:58:58.442Z,1.92
2019-05-07T02:01:28.878Z,2.05
2019-05-07T02:04:27.414Z,2.16
2019-05-07T02:07:15.378Z,2.06
2019-05-07T02:09:54.273Z,2.06
2019-05-07T02:12:31.895Z,2.16
2019-05-07T02:15:02.828Z,2.00
2019-05-07T02:17:33.422Z,1.89
2019-05-07T02:20:03.894Z,1.69
2019-05-07T02:22:34.320Z,1.51
2019-05-07T02:25:04.796Z,1.47
2019-05-07T02:27:35.214Z,1.54
2019-05-07T02:30:06.067Z,1.60
2019-05-07T02:32:36.371Z,1.72
2019-05-07T02:35:06.928Z,1.83
2019-05-07T02:37:51.106Z,1.81
2019-05-07T02:40:45.577Z,1.70
2019-05-07T02:43:16.046Z,1.56
2019-05-07T02:46:20.573Z,1.34
2019-05-07T02:48:43.573Z,1.32
2019-05-07T02:51:23.811Z,1.22
2019-05-07T02:54:03.637Z,1.08
2019-05-07T02:56:34.285Z,1.05
2019-05-07T02:59:04.683Z,1.07
2019-05-07T03:01:35.125Z,1.02
2019-05-07T03:04:05.552Z,1.05
2019-05-07T03:06:36.108Z,1.01
2019-05-07T03:09:07.652Z,1.13
2019-05-07T03:11:38.201Z,1.21
2019-05-07T03:14:08.643Z,1.16
2019-05-07T03:16:44.302Z,1.12
2019-05-07T03:19:13.386Z,1.12
2019-05-07T03:21:56.066Z,1.09
2019-05-07T03:24:52.687Z,1.05
2019-05-07T03:27:23.414Z,1.00
2019-05-07T03:30:17.401Z,1.06
2019-05-07T03:32:56.556Z,1.11
2019-05-07T03:35:37.395Z,1.17
2019-05-07T03:38:04.864Z,1.13
2019-05-07T03:40:36.609Z,1.19
2019-05-07T03:43:07.004Z,1.05
2019-05-07T03:45:49.528Z,0.98
2019-05-07T03:48:23.921Z,1.02
2019-05-07T03:50:53.775Z,1.16
2019-05-07T03:53:24.725Z,1.15
2019-05-07T03:55:55.179Z,1.15
2019-05-07T03:58:25.581Z,1.14
2019-05-07T04:00:56.090Z,1.20
2019-05-07T04:03:26.512Z,1.17
2019-05-07T04:05:56.980Z,1.17
2019-05-07T04:08:27.354Z,1.08
2019-05-07T04:10:57.786Z,1.19
2019-05-07T04:13:28.183Z,1.35
2019-05-07T04:15:58.587Z,1.54
2019-05-07T04:18:28.989Z,1.69
2019-05-07T04:20:59.304Z,1.79
2019-05-07T04:23:29.615Z,1.90
2019-05-07T04:26:16.800Z,1.85
2019-05-07T04:28:55.218Z,1.91
2019-05-07T04:31:27.641Z,2.05
2019-05-07T04:34:00.157Z,2.17
2019-05-07T04:36:34.349Z,2.27
2019-05-07T04:39:07.016Z,2.35
2019-05-07T04:41:37.518Z,2.43
2019-05-07T04:44:07.930Z,2.40
2019-05-07T04:46:38.366Z,2.34
2019-05-07T04:49:08.807Z,2.41
2019-05-07T04:52:04.039Z,2.41
2019-05-07T04:54:33.329Z,2.54
2019-05-07T04:57:05.422Z,2.62
2019-05-07T04:59:35.774Z,2.74
2019-05-07T05:02:18.464Z,2.81
2019-05-07T05:04:48.897Z,2.84
2019-05-07T05:07:19.332Z,2.92
2019-05-07T05:09:49.785Z,3.05
2019-05-07T05:12:22.464Z,3.17
2019-05-07T05:14:52.478Z,3.28
2019-05-07T05:17:23.043Z,3.45
2019-05-07T05:19:53.437Z,3.54
2019-05-07T05:22:32.847Z,3.61
2019-05-07T05:25:24.317Z,3.72
2019-05-07T05:27:54.707Z,3.87
2019-05-07T05:30:35.373Z,4.03
2019-05-07T05:33:05.868Z,4.16
2019-05-07T05:35:36.446Z,4.35
2019-05-07T05:38:06.992Z,4.44
2019-05-07T05:40:37.384Z,4.64
2019-05-07T05:43:17.997Z,4.83
2019-05-07T05:45:53.259Z,5.04
2019-05-07T05:48:24.138Z,5.24
2019-05-07T05:51:02.689Z,5.42
2019-05-07T05:53:40.021Z,5.56
2019-05-07T05:56:18.964Z,5.70
2019-05-07T05:59:27.905Z,5.89
2019-05-07T06:02:06.760Z,5.92
2019-05-07T06:04:48.001Z,5.96
2019-05-07T06:07:29.162Z,6.05
2019-05-07T06:10:12.845Z,6.27
2019-05-07T06:13:02.387Z,6.47
2019-05-07T06:15:59.998Z,6.75
2019-05-07T06:19:02.030Z,7.08
2019-05-07T06:21:52.594Z,7.36
2019-05-07T06:24:35.219Z,7.54
2019-05-07T06:27:05.859Z,7.77
2019-05-07T06:29:36.298Z,7.83
2019-05-07T06:32:09.438Z,7.95
2019-05-07T06:34:42.513Z,8.03
2019-05-07T06:37:11.965Z,8.22
2019-05-07T06:39:47.979Z,8.35
2019-05-07T06:42:43.076Z,8.54
2019-05-07T06:45:35.572Z,8.60
2019-05-07T06:48:06.191Z,8.59
2019-05-07T06:50:36.544Z,8.76
2019-05-07T06:53:06.943Z,8.94
2019-05-07T06:55:37.360Z,9.15
2019-05-07T06:58:12.224Z,9.42
2019-05-07T07:01:02.217Z,9.59
2019-05-07T07:03:41.966Z,9.93
2019-05-07T07:06:25.707Z,10.17
2019-05-07T07:09:24.000Z,10.41
2019-05-07T07:11:58.543Z,10.70
2019-05-07T07:14:28.930Z,11.03
2019-05-07T07:16:59.387Z,11.12
2019-05-07T07:19:32.017Z,11.05
2019-05-07T07:22:02.443Z,11.31
2019-05-07T07:24:32.994Z,11.42
2019-05-07T07:27:03.639Z,11.42
2019-05-07T07:29:35.698Z,11.73
2019-05-07T07:32:07.566Z,12.18
2019-05-07T07:34:44.432Z,12.57
2019-05-07T07:37:37.842Z,12.88
2019-05-07T07:40:33.939Z,13.42
2019-05-07T07:43:07.011Z,13.82
2019-05-07T07:45:36.600Z,14.25
2019-05-07T07:48:07.134Z,14.74
2019-05-07T07:50:37.507Z,14.57
2019-05-07T07:53:07.961Z,14.61
2019-05-07T07:55:43.676Z,15.07
2019-05-07T07:58:25.354Z,15.61
2019-05-07T08:01:12.209Z,15.95
2019-05-07T08:03:42.788Z,15.94
2019-05-07T08:06:13.163Z,15.94
2019-05-07T08:08:43.506Z,15.52
2019-05-07T08:11:13.977Z,15.56
2019-05-07T08:13:44.343Z,15.30
2019-05-07T08:16:14.796Z,15.13
2019-05-07T08:18:45.216Z,14.93
2019-05-07T08:21:15.712Z,14.55
2019-05-07T08:23:46.175Z,14.10
2019-05-07T08:26:16.593Z,13.73
2019-05-07T08:28:47.101Z,13.28
2019-05-07T08:31:36.387Z,13.06
2019-05-07T08:34:18.211Z,12.81
2019-05-07T08:36:49.916Z,12.70
2019-05-07T08:39:22.334Z,12.61
2019-05-07T08:41:52.783Z,12.65
2019-05-07T08:44:26.878Z,12.80
2019-05-07T08:47:06.116Z,12.90
2019-05-07T08:49:40.202Z,12.82
2019-05-07T08:52:11.833Z,12.78
2019-05-07T08:54:42.829Z,12.84
2019-05-07T08:57:13.435Z,13.05
2019-05-07T08:59:57.199Z,13.45
2019-05-07T09:02:15.914Z,13.67
2019-05-07T09:04:46.361Z,13.84
2019-05-07T09:07:16.787Z,13.72
2019-05-07T09:09:47.334Z,13.70
2019-05-07T09:12:17.699Z,13.56
2019-05-07T09:14:48.124Z,13.51
2019-05-07T09:17:18.478Z,13.49
2019-05-07T09:19:52.130Z,13.30
2019-05-07T09:22:23.029Z,13.47
2019-05-07T09:24:53.402Z,13.50
2019-05-07T09:27:36.182Z,13.48
2019-05-07T09:30:22.053Z,13.57
2019-05-07T09:32:56.531Z,13.59
2019-05-07T09:35:32.500Z,14.19
2019-05-07T09:38:03.294Z,14.52
2019-05-07T09:40:33.770Z,14.63
2019-05-07T09:43:04.145Z,14.78
2019-05-07T09:45:34.612Z,14.72
2019-05-07T09:48:05.141Z,14.77
2019-05-07T09:50:35.524Z,14.34
2019-05-07T09:53:05.997Z,14.28
2019-05-07T09:55:36.451Z,14.55
2019-05-07T09:58:06.940Z,14.75
2019-05-07T10:00:38.218Z,15.36
2019-05-07T10:03:08.696Z,16.40
2019-05-07T10:05:39.205Z,17.07
2019-05-07T10:08:09.774Z,17.65
2019-05-07T10:10:41.678Z,17.33
2019-05-07T10:13:43.064Z,16.92
2019-05-07T10:16:16.508Z,16.20
2019-05-07T10:18:46.999Z,15.67
2019-05-07T10:21:17.504Z,14.57
2019-05-07T10:23:48.012Z,14.53
2019-05-07T10:26:18.982Z,14.34
2019-05-07T10:28:49.418Z,14.29
2019-05-07T10:31:19.865Z,14.06
2019-05-07T10:33:52.271Z,14.12
2019-05-07T10:36:22.893Z,14.28
2019-05-07T10:38:53.326Z,14.39
2019-05-07T10:41:23.866Z,14.54
2019-05-07T10:43:54.302Z,14.56
2019-05-07T10:46:34.543Z,14.73
2019-05-07T10:49:14.914Z,14.77
2019-05-07T10:51:45.519Z,14.87
2019-05-07T10:54:16.116Z,14.93
2019-05-07T10:56:46.511Z,15.09
2019-05-07T10:59:17.026Z,15.57
2019-05-07T11:01:59.797Z,16.77
2019-05-07T11:04:40.209Z,18.02
2019-05-07T11:07:02.285Z,19.76
2019-05-07T11:09:32.906Z,20.74
2019-05-07T11:12:03.255Z,20.66
2019-05-07T11:14:33.732Z,21.17
2019-05-07T11:17:32.633Z,22.22
2019-05-07T11:20:03.751Z,23.10
2019-05-07T11:22:34.430Z,23.28
2019-05-07T11:25:05.418Z,23.02
2019-05-07T11:27:35.971Z,23.23
2019-05-07T11:30:07.118Z,22.30
2019-05-07T11:32:37.542Z,22.54
2019-05-07T11:35:08.429Z,22.15
2019-05-07T11:37:39.020Z,21.83
2019-05-07T11:40:09.767Z,22.71
2019-05-07T11:43:05.020Z,22.91
2019-05-07T11:45:44.710Z,22.32
2019-05-07T11:48:15.931Z,22.78
2019-05-07T11:51:08.090Z,22.51
2019-05-07T11:53:41.884Z,22.75
2019-05-07T11:56:12.583Z,22.46
2019-05-07T11:58:43.028Z,23.02
2019-05-07T12:01:17.839Z,22.95
2019-05-07T12:03:48.274Z,22.71
2019-05-07T12:06:18.688Z,23.29
2019-05-07T12:08:51.995Z,23.05
2019-05-07T12:11:21.910Z,23.60
2019-05-07T12:13:53.053Z,23.45
2019-05-07T12:16:23.662Z,23.98
2019-05-07T12:18:55.510Z,24.09
2019-05-07T12:21:26.060Z,22.39
2019-05-07T12:23:56.400Z,22.10
2019-05-07T12:26:27.727Z,21.72
2019-05-07T12:28:58.205Z,21.25
2019-05-07T12:31:43.793Z,21.26
2019-05-07T12:34:18.060Z,20.13
2019-05-07T12:36:48.490Z,20.40
2019-05-07T12:39:18.942Z,21.17
2019-05-07T12:41:49.444Z,21.86
2019-05-07T12:44:22.054Z,21.88
2019-05-07T12:46:52.544Z,23.33
2019-05-07T12:49:22.999Z,24.59
2019-05-07T12:52:12.660Z,24.51
2019-05-07T12:54:57.313Z,24.83
2019-05-07T12:57:27.764Z,25.51
2019-05-07T13:00:17.020Z,25.36
2019-05-07T13:03:07.509Z,25.58
2019-05-07T13:05:37.955Z,26.47
2019-05-07T13:08:08.576Z,27.41
2019-05-07T13:10:39.029Z,27.71
2019-05-07T13:13:09.439Z,27.99
2019-05-07T13:15:39.772Z,27.53
2019-05-07T13:18:10.244Z,27.66
2019-05-07T13:20:40.677Z,27.83
2019-05-07T13:23:12.001Z,27.75
2019-05-07T13:25:43.031Z,27.22
2019-05-07T13:28:13.702Z,26.42
2019-05-07T13:30:44.104Z,26.28
2019-05-07T13:33:16.846Z,25.21
2019-05-07T13:35:48.685Z,24.49
2019-05-07T13:38:33.293Z,23.63
2019-05-07T13:41:23.237Z,22.55
2019-05-07T13:44:18.707Z,21.80
2019-05-07T13:46:53.041Z,20.78
2019-05-07T13:49:23.807Z,19.84
2019-05-07T13:52:02.827Z,19.57
2019-05-07T13:54:26.482Z,19.50
2019-05-07T13:56:56.907Z,19.13
2019-05-07T13:59:27.316Z,18.75
2019-05-07T14:02:05.410Z,18.97
2019-05-07T14:04:35.803Z,18.13
2019-05-07T14:07:06.271Z,17.46
2019-05-07T14:09:36.658Z,17.42
2019-05-07T14:12:07.147Z,17.45
2019-05-07T14:14:37.912Z,17.60
2019-05-07T14:17:08.315Z,17.57
2019-05-07T14:19:38.706Z,17.03
2019-05-07T14:22:17.953Z,17.43
2019-05-07T14:24:42.190Z,17.51
2019-05-07T14:27:12.870Z,17.31
2019-05-07T14:29:43.301Z,17.34
2019-05-07T14:32:42.126Z,17.59
2019-05-07T14:35:32.629Z,17.73
2019-05-07T14:38:07.098Z,17.90
2019-05-07T14:40:37.505Z,17.94
2019-05-07T14:43:12.825Z,18.28
2019-05-07T14:45:43.422Z,18.47
2019-05-07T14:48:13.874Z,18.38
2019-05-07T14:50:44.971Z,18.01
2019-05-07T14:53:15.662Z,18.41
2019-05-07T14:55:46.134Z,18.50
2019-05-07T14:58:16.568Z,18.75
2019-05-07T15:00:46.858Z,18.89
2019-05-07T15:03:17.260Z,18.71
2019-05-07T15:05:47.654Z,18.63
2019-05-07T15:08:18.143Z,18.31
2019-05-07T15:10:48.962Z,17.77
2019-05-07T15:13:21.649Z,17.73
2019-05-07T15:15:52.571Z,17.71
2019-05-07T15:18:32.247Z,17.58
2019-05-07T15:21:02.690Z,17.66
2019-05-07T15:23:35.818Z,17.70
2019-05-07T15:26:06.465Z,17.61
2019-05-07T15:28:38.694Z,16.96
2019-05-07T15:31:18.131Z,16.84
2019-05-07T15:33:48.633Z,17.36
2019-05-07T15:36:19.080Z,17.93
2019-05-07T15:38:49.485Z,18.40
2019-05-07T15:41:19.815Z,18.68
2019-05-07T15:43:52.140Z,18.94
2019-05-07T15:46:22.707Z,18.97
2019-05-07T15:48:53.297Z,19.46
2019-05-07T15:51:23.745Z,19.95
2019-05-07T15:53:58.505Z,20.60
2019-05-07T15:56:29.024Z,20.46
2019-05-07T15:58:59.367Z,21.16
2019-05-07T16:01:29.878Z,21.50
2019-05-07T16:04:02.612Z,21.56
2019-05-07T16:06:32.512Z,21.35
2019-05-07T16:09:04.626Z,20.95
2019-05-07T16:11:35.344Z,20.57
2019-05-07T16:14:32.084Z,20.18
2019-05-07T16:17:12.944Z,19.90
2019-05-07T16:19:43.313Z,19.56
2019-05-07T16:22:19.090Z,19.13
2019-05-07T16:24:49.505Z,18.79
2019-05-07T16:27:19.964Z,18.70
2019-05-07T16:29:52.524Z,18.48
2019-05-07T16:32:24.200Z,18.50
2019-05-07T16:34:55.010Z,18.66
2019-05-07T16:37:25.406Z,19.02
2019-05-07T16:39:55.851Z,19.35
2019-05-07T16:42:26.310Z,18.57
2019-05-07T16:44:56.774Z,18.17
2019-05-07T16:47:27.141Z,17.82
2019-05-07T16:49:57.483Z,17.58
2019-05-07T16:52:28.015Z,17.30
2019-05-07T16:54:59.658Z,17.05
2019-05-07T16:57:48.890Z,17.24
2019-05-07T17:00:29.217Z,17.34
2019-05-07T17:03:02.194Z,17.31
2019-05-07T17:05:32.829Z,17.26
2019-05-07T17:08:22.372Z,17.22
2019-05-07T17:10:53.182Z,17.19
2019-05-07T17:13:23.641Z,17.09
2019-05-07T17:16:03.349Z,16.77
2019-05-07T17:18:34.043Z,16.35
2019-05-07T17:21:04.574Z,15.86
2019-05-07T17:23:44.114Z,15.53
2019-05-07T17:26:07.153Z,15.29
2019-05-07T17:28:37.905Z,14.93
2019-05-07T17:31:08.353Z,14.76
2019-05-07T17:33:38.783Z,14.57
2019-05-07T17:36:09.355Z,14.28
2019-05-07T17:38:39.637Z,14.20
2019-05-07T17:41:18.179Z,13.91
2019-05-07T17:43:42.252Z,13.82
2019-05-07T17:46:12.609Z,13.77
2019-05-07T17:48:43.061Z,13.63
2019-05-07T17:51:32.412Z,13.54
2019-05-07T17:54:02.959Z,13.46
2019-05-07T17:56:33.333Z,13.40
2019-05-07T17:59:03.791Z,13.25
2019-05-07T18:01:44.884Z,13.15
2019-05-07T18:04:15.391Z,13.04
2019-05-07T18:06:45.970Z,12.93
2019-05-07T18:09:16.353Z,12.82
2019-05-07T18:11:46.645Z,12.66
2019-05-07T18:14:17.117Z,12.54
2019-05-07T18:17:15.833Z,12.43
2019-05-07T18:19:50.336Z,12.36
2019-05-07T18:22:22.153Z,12.26
2019-05-07T18:24:52.941Z,12.19
2019-05-07T18:27:25.080Z,12.11
2019-05-07T18:29:55.581Z,12.01
2019-05-07T18:32:32.417Z,11.87
2019-05-07T18:35:02.974Z,11.76
2019-05-07T18:37:33.379Z,11.69
2019-05-07T18:40:03.852Z,11.60
2019-05-07T18:42:34.303Z,11.53
2019-05-07T18:45:04.871Z,11.45
2019-05-07T18:47:35.318Z,11.37
2019-05-07T18:50:05.849Z,11.32
2019-05-07T18:52:36.728Z,11.28
2019-05-07T18:55:07.463Z,11.22
2019-05-07T18:57:37.905Z,11.13
2019-05-07T19:00:13.431Z,11.05
2019-05-07T19:02:43.906Z,11.02
2019-05-07T19:05:14.317Z,10.98
2019-05-07T19:07:44.709Z,10.93
2019-05-07T19:10:15.517Z,10.89
2019-05-07T19:12:46.061Z,10.77
2019-05-07T19:15:17.158Z,10.69
2019-05-07T19:17:47.661Z,10.61
2019-05-07T19:20:18.132Z,10.54
2019-05-07T19:22:48.451Z,10.48
2019-05-07T19:25:18.797Z,10.37
2019-05-07T19:27:49.296Z,10.20
2019-05-07T19:30:21.795Z,10.09
2019-05-07T19:32:52.249Z,10.02
2019-05-07T19:35:23.240Z,9.82
2019-05-07T19:37:53.699Z,9.75
2019-05-07T19:40:24.112Z,9.55
2019-05-07T19:42:54.774Z,9.52
2019-05-07T19:45:25.423Z,9.32
2019-05-07T19:47:55.835Z,9.24
2019-05-07T19:50:26.326Z,9.09
2019-05-07T19:52:56.677Z,8.81
2019-05-07T19:55:27.127Z,8.70
2019-05-07T19:58:01.759Z,8.49
2019-05-07T20:00:32.790Z,8.42
2019-05-07T20:03:03.570Z,8.31
2019-05-07T20:05:37.162Z,8.25
2019-05-07T20:08:06.064Z,8.07
2019-05-07T20:10:42.275Z,7.99
2019-05-07T20:13:12.972Z,7.91
2019-05-07T20:15:46.617Z,7.81
2019-05-07T20:18:17.034Z,7.75
2019-05-07T20:20:47.394Z,7.67
2019-05-07T20:23:20.147Z,7.65
2019-05-07T20:25:52.760Z,7.53
2019-05-07T20:28:22.678Z,7.37
2019-05-07T20:30:56.009Z,7.33
2019-05-07T20:33:25.239Z,7.40
2019-05-07T20:35:55.610Z,7.19
2019-05-07T20:38:26.125Z,7.16
2019-05-07T20:40:56.544Z,7.07
2019-05-07T20:43:26.988Z,7.09
2019-05-07T20:45:57.418Z,7.05
2019-05-07T20:48:27.831Z,6.94
2019-05-07T20:50:58.279Z,6.89
2019-05-07T20:53:46.204Z,6.80
2019-05-07T20:56:18.114Z,6.69
2019-05-07T20:58:48.509Z,6.68
2019-05-07T21:01:18.830Z,6.67
2019-05-07T21:03:49.302Z,6.64
2019-05-07T21:06:19.662Z,6.74
2019-05-07T21:08:50.119Z,6.75
2019-05-07T21:11:22.557Z,6.72
2019-05-07T21:13:52.713Z,6.64
2019-05-07T21:16:23.123Z,6.66
2019-05-07T21:18:53.526Z,6.68
2019-05-07T21:21:23.978Z,6.71
2019-05-07T21:23:54.436Z,6.59
2019-05-07T21:26:24.899Z,6.53
2019-05-07T21:28:55.398Z,6.44
2019-05-07T21:31:25.749Z,6.34
2019-05-07T21:33:56.159Z,6.36
2019-05-07T21:36:27.571Z,6.33
2019-05-07T21:38:57.981Z,6.26
2019-05-07T21:41:28.252Z,6.23
2019-05-07T21:43:58.720Z,6.19
2019-05-07T21:46:29.113Z,6.11
2019-05-07T21:48:59.595Z,6.03
2019-05-07T21:51:30.025Z,5.95
2019-05-07T21:54:11.968Z,6.05
2019-05-07T21:56:52.212Z,6.03
2019-05-07T21:59:25.190Z,6.09
2019-05-07T22:02:02.071Z,6.14
2019-05-07T22:04:32.034Z,6.08
2019-05-07T22:07:03.007Z,6.01
2019-05-07T22:09:33.463Z,5.96
2019-05-07T22:12:03.902Z,5.85
2019-05-07T22:14:34.330Z,5.87
2019-05-07T22:17:05.447Z,5.82
2019-05-07T22:19:35.784Z,5.81
2019-05-07T22:22:06.261Z,5.84
2019-05-07T22:24:36.551Z,5.80
2019-05-07T22:27:07.028Z,5.79
2019-05-07T22:29:37.350Z,5.82
2019-05-07T22:32:30.787Z,5.77
2019-05-07T22:35:15.092Z,5.73
2019-05-07T22:37:45.587Z,5.86
2019-05-07T22:40:16.442Z,5.93
2019-05-07T22:42:46.824Z,6.00
2019-05-07T22:45:17.600Z,5.95
2019-05-07T22:47:48.259Z,5.96
2019-05-07T22:50:18.971Z,5.95
2019-05-07T22:52:49.758Z,5.92
2019-05-07T22:55:21.827Z,5.90
2019-05-07T22:58:00.994Z,5.94
2019-05-07T23:00:38.062Z,6.03
2019-05-07T23:03:08.696Z,6.17
2019-05-07T23:05:39.140Z,6.12
2019-05-07T23:08:09.720Z,6.16
2019-05-07T23:10:42.124Z,6.22
2019-05-07T23:13:13.081Z,6.29
2019-05-07T23:15:44.556Z,6.41
2019-05-07T23:18:14.989Z,6.49
2019-05-07T23:20:45.529Z,6.53
2019-05-07T23:23:16.007Z,6.56
2019-05-07T23:25:49.312Z,6.57
2019-05-07T23:28:19.792Z,6.56
2019-05-07T23:30:51.816Z,6.58
2019-05-07T23:33:22.755Z,6.60
2019-05-07T23:35:53.371Z,6.62
2019-05-07T23:38:23.982Z,6.57
2019-05-07T23:41:02.610Z,6.55
2019-05-07T23:43:33.781Z,6.47
2019-05-07T23:46:04.523Z,6.43
2019-05-07T23:48:35.086Z,6.39
2019-05-07T23:51:05.613Z,6.30
2019-05-07T23:53:36.169Z,6.30
2019-05-07T23:56:07.005Z,6.33
2019-05-07T23:58:37.494Z,6.29
